Toronto, Canada
Current Conditions -  °F | °C
As of 4:00 AM on Wednesday 26 Nov 2014 (Local Time) from CYYZ Reporting Station
Overcast Overcast  
Wind Chill: 34°   Ceiling: 3000
Heat Index: 34°   Visibility: 10mi
Dew Point: 27°   Wind: 2mph
Humidity: 75%   Direction: NA
Pressure: 30.21"   Gusts: NA
Location:  43.65°N, 79.39°W
Report Text: CYYZ 260900Z VRB02KT 10SM FEW025 OVC030 01/M03 A3021 RMK SC2SC6 SLP236
Loading
Personal Weather Stations






























Interactive Weather Map New forecast layout! Learn more

10-Day Weather Forecast

Advertisements
Track Severe Weather on mobile